Time;durP1;ratioP1;P1;durP2;ratioP2;P2;SDS_P1;SDS_P2;PMS_P1;PMS_P2;Temp;Humidity;BMP_temperature;BMP_pressure;BME280_temperature;BME280_humidity;BME280_pressure;Samples;Min_cycle;Max_cycle;Signal;HPM_P1;HPM_P2
2024/02/24 00:01:49;;;;;;;;;;;;;;;7.84;100.00;100629.84;107994;1254;61778;-67
2024/02/24 00:04:17;;;;;;;;;;;;;;;7.83;100.00;100626.04;108105;1258;60265;-67
2024/02/24 00:06:45;;;;;;;;;;;;;;;7.83;100.00;100627.59;108044;1259;72546;-66
2024/02/24 00:09:12;;;;;;;;;;;;;;;7.83;100.00;100629.20;108298;1254;72743;-66
2024/02/24 00:11:40;;;;;;;;;;;;;;;7.83;100.00;100627.96;107974;1257;73123;-66
2024/02/24 00:14:08;;;;;;;;;;;;;;;7.81;100.00;100631.27;108131;1259;60720;-65
2024/02/24 00:16:36;;;;;;;;;;;;;;;7.80;100.00;100627.04;107984;1254;60282;-65
2024/02/24 00:19:05;;;;;;;;;;;;;;;7.80;100.00;100630.20;107899;1254;72406;-66
2024/02/24 00:21:33;;;;;;;;;;;;;;;7.79;100.00;100629.52;108157;1254;72610;-66
2024/02/24 00:24:01;;;;;;;;;;;;;;;7.77;100.00;100633.48;108124;1260;72480;-65
2024/02/24 00:26:29;;;;;;;;;;;;;;;7.77;100.00;100630.59;108045;1259;60368;-67
2024/02/24 00:28:57;;;;;;;;;;;;;;;7.77;100.00;100629.48;108220;1253;60751;-65
2024/02/24 00:31:24;;;;;;;;;;;;;;;7.77;100.00;100627.85;108071;1255;72976;-67
2024/02/24 00:33:52;;;;;;;;;;;;;;;7.77;100.00;100626.56;108090;1254;70497;-68
2024/02/24 00:36:20;;;;;;;;;;;;;;;7.79;100.00;100626.66;108013;1254;71351;-68
2024/02/24 00:38:47;;;;;;;;;;;;;;;7.81;100.00;100629.24;108128;1253;60463;-69
2024/02/24 00:41:18;;;;;;;;;;;;;;;7.83;100.00;100622.40;108168;1254;60426;-67
2024/02/24 00:43:45;;;;;;;;;;;;;;;7.83;100.00;100617.95;108148;1254;72572;-66
2024/02/24 00:46:13;;;;;;;;;;;;;;;7.85;100.00;100617.25;108087;1254;71504;-66
2024/02/24 00:48:41;;;;;;;;;;;;;;;7.85;100.00;100616.98;108150;1254;71707;-66
2024/02/24 00:51:09;;;;;;;;;;;;;;;7.87;100.00;100616.87;108116;1259;60575;-67
2024/02/24 00:53:37;;;;;;;;;;;;;;;7.88;100.00;100616.66;108146;1259;60398;-66
2024/02/24 00:56:05;;;;;;;;;;;;;;;7.88;100.00;100615.61;108004;1254;72568;-65
2024/02/24 00:58:32;;;;;;;;;;;;;;;7.89;100.00;100613.43;108165;1254;72712;-66
2024/02/24 01:01:00;;;;;;;;;;;;;;;7.89;100.00;100622.92;108140;1254;72486;-65
2024/02/24 01:03:28;;;;;;;;;;;;;;;7.89;100.00;100627.20;108112;1259;60291;-65
2024/02/24 01:05:57;;;;;;;;;;;;;;;7.88;100.00;100628.80;108044;1254;60315;-65
2024/02/24 01:08:24;;;;;;;;;;;;;;;7.88;100.00;100625.77;108101;1254;72585;-68
2024/02/24 01:10:52;;;;;;;;;;;;;;;7.88;100.00;100625.65;108165;1254;71251;-66
2024/02/24 01:13:19;;;;;;;;;;;;;;;7.86;100.00;100623.92;108168;1258;72512;-66
2024/02/24 01:15:47;;;;;;;;;;;;;;;7.86;100.00;100622.25;108004;1257;61681;-65
2024/02/24 01:18:15;;;;;;;;;;;;;;;7.84;100.00;100631.48;108096;1254;60341;-66
2024/02/24 01:20:48;;;;;;;;;;;;;;;7.84;100.00;100636.48;108171;1254;73878;-65
2024/02/24 01:23:16;;;;;;;;;;;;;;;7.85;100.00;100637.30;108012;1254;72441;-66
2024/02/24 01:25:44;;;;;;;;;;;;;;;7.86;100.00;100642.54;108090;1254;72702;-67
2024/02/24 01:28:12;;;;;;;;;;;;;;;7.88;100.00;100643.73;108147;1259;60504;-67
2024/02/24 01:30:39;;;;;;;;;;;;;;;7.89;100.00;100643.23;108154;1254;60212;-65
2024/02/24 01:33:07;;;;;;;;;;;;;;;7.89;100.00;100645.30;107912;1254;72806;-65
2024/02/24 01:35:35;;;;;;;;;;;;;;;7.89;100.00;100638.91;107915;1255;71487;-66
2024/02/24 01:38:04;;;;;;;;;;;;;;;7.88;100.00;100639.23;108032;1254;72985;-65
2024/02/24 01:40:33;;;;;;;;;;;;;;;7.88;100.00;100635.70;108022;1257;60400;-65
2024/02/24 01:43:00;;;;;;;;;;;;;;;7.89;100.00;100630.49;108127;1253;59489;-65
2024/02/24 01:45:28;;;;;;;;;;;;;;;7.89;100.00;100626.69;108022;1254;73799;-65
2024/02/24 01:47:56;;;;;;;;;;;;;;;7.89;100.00;100627.91;107959;1254;71648;-65
2024/02/24 01:50:25;;;;;;;;;;;;;;;7.87;100.00;100626.48;108007;1257;71394;-66
2024/02/24 01:52:55;;;;;;;;;;;;;;;7.83;100.00;100636.63;108011;1255;60736;-66
2024/02/24 01:55:22;;;;;;;;;;;;;;;7.82;100.00;100637.45;108167;1253;60196;-65
2024/02/24 01:57:50;;;;;;;;;;;;;;;7.79;100.00;100632.14;108048;1254;73803;-66
2024/02/24 02:00:17;;;;;;;;;;;;;;;7.75;100.00;100635.52;108054;1255;72700;-65
2024/02/24 02:02:45;;;;;;;;;;;;;;;7.71;100.00;100641.51;108253;1254;71452;-66
2024/02/24 02:05:13;;;;;;;;;;;;;;;7.70;100.00;100644.09;108001;1258;60482;-67
2024/02/24 02:07:41;;;;;;;;;;;;;;;7.71;100.00;100640.06;108051;1254;60739;-65
2024/02/24 02:10:08;;;;;;;;;;;;;;;7.71;100.00;100644.16;107940;1254;72933;-66
2024/02/24 02:12:36;;;;;;;;;;;;;;;7.71;100.00;100644.11;107903;1254;71257;-65
2024/02/24 02:15:05;;;;;;;;;;;;;;;7.72;100.00;100642.05;107993;1254;72462;-65
2024/02/24 02:17:32;;;;;;;;;;;;;;;7.74;100.00;100639.87;108071;1254;60560;-65
2024/02/24 02:20:01;;;;;;;;;;;;;;;7.73;100.00;100641.17;108126;1254;60274;-66
2024/02/24 02:22:29;;;;;;;;;;;;;;;7.70;100.00;100642.70;108048;1260;73001;-67
2024/02/24 02:24:57;;;;;;;;;;;;;;;7.71;100.00;100642.67;108116;1254;71697;-66
2024/02/24 02:27:25;;;;;;;;;;;;;;;7.73;100.00;100642.40;108029;1260;72745;-66
2024/02/24 02:29:52;;;;;;;;;;;;;;;7.72;100.00;100636.35;108099;1253;60512;-65
2024/02/24 02:32:20;;;;;;;;;;;;;;;7.73;100.00;100637.48;108063;1255;60805;-65
2024/02/24 02:34:48;;;;;;;;;;;;;;;7.76;100.00;100635.79;108047;1254;72590;-65
2024/02/24 02:37:15;;;;;;;;;;;;;;;7.77;100.00;100635.13;108013;1253;73010;-64
2024/02/24 02:39:43;;;;;;;;;;;;;;;7.67;100.00;100635.57;108067;1254;71078;-65
2024/02/24 02:42:11;;;;;;;;;;;;;;;7.64;100.00;100637.22;108025;1257;60484;-65
2024/02/24 02:44:38;;;;;;;;;;;;;;;7.63;100.00;100638.79;108207;1254;60309;-66
2024/02/24 02:47:06;;;;;;;;;;;;;;;7.62;100.00;100642.91;108160;1254;71694;-65
2024/02/24 02:49:45;;;;;;;;;;;;;;;7.62;100.00;100645.94;108068;1254;72726;-66
2024/02/24 02:52:13;;;;;;;;;;;;;;;7.62;100.00;100642.86;108012;1254;71400;-66
2024/02/24 02:54:41;;;;;;;;;;;;;;;7.63;100.00;100645.95;108040;1258;60387;-66
2024/02/24 02:57:09;;;;;;;;;;;;;;;7.62;100.00;100645.09;108054;1254;60434;-65
2024/02/24 02:59:36;;;;;;;;;;;;;;;7.83;100.00;100647.05;107973;1254;73162;-66
2024/02/24 03:02:04;;;;;;;;;;;;;;;7.80;100.00;100651.92;107985;1254;72890;-65
2024/02/24 03:04:32;;;;;;;;;;;;;;;7.67;100.00;100657.33;108032;1254;71085;-66
2024/02/24 03:06:59;;;;;;;;;;;;;;;7.66;100.00;100659.88;108070;1260;60278;-66
2024/02/24 03:09:27;;;;;;;;;;;;;;;7.66;100.00;100660.36;108211;1254;60323;-66
2024/02/24 03:11:54;;;;;;;;;;;;;;;7.66;100.00;100661.92;108023;1254;72652;-67
2024/02/24 03:14:22;;;;;;;;;;;;;;;7.65;100.00;100660.56;107907;1254;71209;-66
2024/02/24 03:16:50;;;;;;;;;;;;;;;7.63;100.00;100656.86;107907;1254;72692;-66
2024/02/24 03:19:17;;;;;;;;;;;;;;;7.62;100.00;100652.64;108030;1254;60452;-66
2024/02/24 03:21:45;;;;;;;;;;;;;;;7.61;100.00;100652.14;107961;1254;59773;-65
2024/02/24 03:24:14;;;;;;;;;;;;;;;7.61;100.00;100648.05;108002;1254;73843;-65
2024/02/24 03:26:42;;;;;;;;;;;;;;;7.62;100.00;100647.42;108007;1254;72540;-66
2024/02/24 03:29:10;;;;;;;;;;;;;;;7.62;100.00;100648.50;107937;1254;72825;-67
2024/02/24 03:31:37;;;;;;;;;;;;;;;7.63;100.00;100646.80;107941;1254;60409;-65
2024/02/24 03:34:07;;;;;;;;;;;;;;;7.62;100.00;100642.73;107989;1254;59739;-66
2024/02/24 03:36:34;;;;;;;;;;;;;;;7.62;100.00;100640.73;108035;1255;73676;-65
2024/02/24 03:39:02;;;;;;;;;;;;;;;7.62;100.00;100643.06;108009;1254;71667;-66
2024/02/24 03:41:31;;;;;;;;;;;;;;;7.60;100.00;100641.12;108040;1254;70634;-66
2024/02/24 03:43:59;;;;;;;;;;;;;;;7.57;100.00;100641.05;108012;1254;60332;-66
2024/02/24 03:46:26;;;;;;;;;;;;;;;7.55;100.00;100640.91;108019;1254;59982;-66
2024/02/24 03:48:55;;;;;;;;;;;;;;;7.55;100.00;100642.29;108027;1254;72691;-65
2024/02/24 03:51:23;;;;;;;;;;;;;;;7.55;100.00;100643.17;108088;1254;71260;-66
2024/02/24 03:53:50;;;;;;;;;;;;;;;7.53;100.00;100647.88;108021;1254;71201;-65
2024/02/24 03:56:18;;;;;;;;;;;;;;;7.50;100.00;100649.36;107978;1254;60422;-65
2024/02/24 03:58:46;;;;;;;;;;;;;;;7.50;100.00;100652.21;107969;1254;60305;-67
2024/02/24 04:01:14;;;;;;;;;;;;;;;7.51;100.00;100657.19;108239;1253;73816;-65
2024/02/24 04:03:42;;;;;;;;;;;;;;;7.53;100.00;100658.66;108173;1259;72726;-68
2024/02/24 04:06:09;;;;;;;;;;;;;;;7.54;100.00;100663.48;108011;1256;71620;-67
2024/02/24 04:08:37;;;;;;;;;;;;;;;7.54;100.00;100666.98;108067;1257;60348;-66
2024/02/24 04:11:05;;;;;;;;;;;;;;;7.56;100.00;100660.85;108159;1254;60319;-66
2024/02/24 04:13:33;;;;;;;;;;;;;;;7.57;100.00;100660.23;107925;1254;73881;-66
2024/02/24 04:16:00;;;;;;;;;;;;;;;7.56;100.00;100660.43;108016;1254;71591;-66
2024/02/24 04:18:28;;;;;;;;;;;;;;;7.56;100.00;100662.40;107999;1254;72682;-66
2024/02/24 04:20:55;;;;;;;;;;;;;;;7.56;100.00;100662.33;108091;1254;60295;-66
2024/02/24 04:23:23;;;;;;;;;;;;;;;7.53;100.00;100661.61;108046;1254;60336;-66
2024/02/24 04:25:51;;;;;;;;;;;;;;;7.51;100.00;100657.89;107920;1254;73894;-66
2024/02/24 04:28:18;;;;;;;;;;;;;;;7.48;100.00;100656.88;107891;1254;72780;-66
2024/02/24 04:30:49;;;;;;;;;;;;;;;7.46;100.00;100664.23;108016;1254;72745;-66
2024/02/24 04:33:17;;;;;;;;;;;;;;;7.46;100.00;100664.53;108042;1256;61652;-66
2024/02/24 04:35:45;;;;;;;;;;;;;;;7.45;100.00;100667.65;108082;1254;60304;-66
2024/02/24 04:38:13;;;;;;;;;;;;;;;7.43;100.00;100666.17;108070;1253;72551;-66
2024/02/24 04:40:41;;;;;;;;;;;;;;;7.40;100.00;100671.05;108121;1254;71489;-66
2024/02/24 04:43:09;;;;;;;;;;;;;;;7.38;100.00;100674.98;108052;1257;71355;-64
2024/02/24 04:45:36;;;;;;;;;;;;;;;7.36;100.00;100677.38;108089;1254;61157;-67
2024/02/24 04:48:05;;;;;;;;;;;;;;;7.35;100.00;100679.16;107959;1254;60317;-66
2024/02/24 04:50:33;;;;;;;;;;;;;;;7.33;100.00;100682.78;107861;1254;72614;-66
2024/02/24 04:53:00;;;;;;;;;;;;;;;7.31;100.00;100681.85;108024;1254;72740;-66
2024/02/24 04:55:28;;;;;;;;;;;;;;;7.29;100.00;100686.70;108023;1256;72710;-65
2024/02/24 04:57:55;;;;;;;;;;;;;;;7.27;100.00;100691.55;107924;1257;60469;-67
2024/02/24 05:00:23;;;;;;;;;;;;;;;7.27;100.00;100694.14;108014;1254;58994;-66
2024/02/24 05:02:51;;;;;;;;;;;;;;;7.27;100.00;100693.07;107938;1254;73909;-67
2024/02/24 05:05:19;;;;;;;;;;;;;;;7.26;100.00;100692.06;107954;1254;71444;-65
2024/02/24 05:07:46;;;;;;;;;;;;;;;7.26;100.00;100690.83;108110;1257;71344;-66
2024/02/24 05:10:14;;;;;;;;;;;;;;;7.24;100.00;100685.37;107874;1254;60463;-66
2024/02/24 05:12:47;;;;;;;;;;;;;;;7.22;100.00;100686.02;107978;1254;60281;-66
2024/02/24 05:15:18;;;;;;;;;;;;;;;7.22;100.00;100689.68;108114;1253;73784;-65
2024/02/24 05:17:46;;;;;;;;;;;;;;;7.23;100.00;100698.62;107917;1254;73885;-67
2024/02/24 05:20:14;;;;;;;;;;;;;;;7.25;100.00;100708.67;107931;1254;72711;-65
2024/02/24 05:22:42;;;;;;;;;;;;;;;7.26;100.00;100709.05;107947;1254;60405;-65
2024/02/24 05:25:09;;;;;;;;;;;;;;;7.27;100.00;100716.21;108017;1254;60342;-67
2024/02/24 05:27:37;;;;;;;;;;;;;;;7.29;100.00;100722.55;108009;1254;72982;-66
2024/02/24 05:30:05;;;;;;;;;;;;;;;7.30;100.00;100725.45;107977;1254;70727;-66
2024/02/24 05:32:33;;;;;;;;;;;;;;;7.32;100.00;100730.77;107911;1260;72682;-65
2024/02/24 05:35:00;;;;;;;;;;;;;;;7.34;100.00;100739.73;108041;1254;60073;-65
2024/02/24 05:37:28;;;;;;;;;;;;;;;7.37;100.00;100741.58;107963;1254;59765;-65
2024/02/24 05:39:58;;;;;;;;;;;;;;;7.38;100.00;100743.50;107943;1254;71425;-66
2024/02/24 05:42:26;;;;;;;;;;;;;;;7.39;100.00;100747.35;108034;1254;72646;-66
2024/02/24 05:44:54;;;;;;;;;;;;;;;7.41;100.00;100748.93;107881;1254;72628;-66
2024/02/24 05:47:21;;;;;;;;;;;;;;;7.42;100.00;100749.06;108085;1254;60479;-66
2024/02/24 05:49:49;;;;;;;;;;;;;;;7.44;100.00;100749.80;108069;1254;60517;-66
2024/02/24 05:52:17;;;;;;;;;;;;;;;7.47;100.00;100755.98;108151;1254;73907;-66
2024/02/24 05:54:44;;;;;;;;;;;;;;;7.50;100.00;100759.18;107912;1254;72691;-66
2024/02/24 05:57:12;;;;;;;;;;;;;;;7.54;100.00;100761.86;107896;1254;71649;-66
2024/02/24 05:59:39;;;;;;;;;;;;;;;7.58;100.00;100766.90;107993;1254;60396;-66
2024/02/24 06:02:07;;;;;;;;;;;;;;;7.62;100.00;100758.44;108034;1253;60903;-66
2024/02/24 06:04:36;;;;;;;;;;;;;;;7.65;100.00;100765.05;108125;1253;73917;-67
2024/02/24 06:07:04;;;;;;;;;;;;;;;7.67;100.00;100766.91;108123;1254;71430;-66
2024/02/24 06:09:31;;;;;;;;;;;;;;;7.70;100.00;100769.83;108063;1256;71630;-66
2024/02/24 06:11:59;;;;;;;;;;;;;;;7.73;100.00;100771.61;107980;1254;61715;-66
2024/02/24 06:14:59;;;;;;;;;;;;;;;7.78;100.00;100768.52;107934;1254;58978;-67
2024/02/24 06:17:27;;;;;;;;;;;;;;;7.84;100.00;100765.49;107946;1254;73860;-66
2024/02/24 06:19:55;;;;;;;;;;;;;;;7.88;100.00;100768.20;108081;1254;72905;-66
2024/02/24 06:22:23;;;;;;;;;;;;;;;7.93;100.00;100768.80;108075;1256;71784;-68
2024/02/24 06:24:50;;;;;;;;;;;;;;;7.98;100.00;100766.86;107985;1254;59252;-67
2024/02/24 06:27:18;;;;;;;;;;;;;;;8.03;100.00;100765.05;107898;1254;60441;-67
2024/02/24 06:29:46;;;;;;;;;;;;;;;8.06;100.00;100764.33;107943;1254;72547;-66
2024/02/24 06:32:14;;;;;;;;;;;;;;;8.11;100.00;100773.42;107943;1254;71274;-65
2024/02/24 06:34:43;;;;;;;;;;;;;;;8.18;100.00;100778.66;108150;1254;71652;-66
2024/02/24 06:37:11;;;;;;;;;;;;;;;8.24;100.00;100784.22;108149;1254;61876;-66
2024/02/24 06:39:39;;;;;;;;;;;;;;;8.31;100.00;100778.16;108134;1254;60395;-66
2024/02/24 06:42:06;;;;;;;;;;;;;;;8.37;100.00;100775.27;108155;1253;73365;-66
2024/02/24 06:44:34;;;;;;;;;;;;;;;8.40;100.00;100775.08;108199;1254;71488;-69
2024/02/24 06:47:02;;;;;;;;;;;;;;;8.44;100.00;100779.26;108147;1254;71116;-66
2024/02/24 06:49:47;;;;;;;;;;;;;;;8.47;100.00;100779.73;108173;1254;60835;-66
2024/02/24 06:52:16;;;;;;;;;;;;;;;8.50;100.00;100775.42;108168;1254;60328;-67
2024/02/24 06:54:43;;;;;;;;;;;;;;;8.50;100.00;100774.75;108179;1254;76171;-66
2024/02/24 06:57:11;;;;;;;;;;;;;;;8.53;100.00;100776.30;108205;1254;71418;-66
2024/02/24 06:59:38;;;;;;;;;;;;;;;8.54;100.00;100771.84;108189;1252;71405;-66
2024/02/24 07:02:06;;;;;;;;;;;;;;;8.55;100.00;100773.38;108189;1254;60332;-66
2024/02/24 07:04:34;;;;;;;;;;;;;;;8.58;100.00;100773.08;108212;1253;60431;-66
2024/02/24 07:07:07;;;;;;;;;;;;;;;8.60;99.93;100769.29;108190;1254;72632;-67
2024/02/24 07:09:35;;;;;;;;;;;;;;;8.63;99.37;100769.28;108130;1254;71746;-66
2024/02/24 07:12:03;;;;;;;;;;;;;;;8.64;99.06;100767.19;107914;1254;71567;-67
2024/02/24 07:14:31;;;;;;;;;;;;;;;8.68;98.50;100763.46;108126;1254;60546;-67
2024/02/24 07:16:59;;;;;;;;;;;;;;;8.69;97.73;100760.28;108074;1254;60344;-67
2024/02/24 07:19:27;;;;;;;;;;;;;;;8.71;97.15;100760.89;107944;1253;72653;-65
2024/02/24 07:21:55;;;;;;;;;;;;;;;8.72;96.86;100767.20;108037;1254;71478;-66
2024/02/24 07:24:22;;;;;;;;;;;;;;;8.74;96.72;100762.88;108024;1254;71452;-65
2024/02/24 07:26:50;;;;;;;;;;;;;;;8.76;96.39;100766.70;108065;1254;60437;-65
2024/02/24 07:29:18;;;;;;;;;;;;;;;8.80;96.34;100764.36;107739;1254;192458;-65
2024/02/24 07:31:46;;;;;;;;;;;;;;;8.83;96.06;100766.34;107886;1260;73884;-66
2024/02/24 07:34:14;;;;;;;;;;;;;;;8.85;95.53;100763.86;107909;1254;72829;-64
2024/02/24 07:36:42;;;;;;;;;;;;;;;8.88;95.67;100759.98;107987;1254;72643;-64
2024/02/24 07:39:09;;;;;;;;;;;;;;;8.93;95.56;100757.61;108020;1254;60280;-67
2024/02/24 07:41:41;;;;;;;;;;;;;;;8.99;95.21;100752.63;108086;1254;60335;-67
2024/02/24 07:44:08;;;;;;;;;;;;;;;9.05;95.07;100744.96;108235;1254;72855;-65
2024/02/24 07:46:36;;;;;;;;;;;;;;;9.13;94.85;100744.57;108028;1254;72572;-65
2024/02/24 07:49:04;;;;;;;;;;;;;;;9.21;94.25;100738.62;108022;1254;71216;-65
2024/02/24 07:51:31;;;;;;;;;;;;;;;9.31;93.87;100740.29;107864;1256;60322;-66
2024/02/24 07:53:59;;;;;;;;;;;;;;;9.42;93.19;100739.23;108097;1254;60242;-66
2024/02/24 07:56:27;;;;;;;;;;;;;;;9.53;92.63;100743.88;107958;1254;72796;-66
2024/02/24 07:58:55;;;;;;;;;;;;;;;9.63;91.39;100744.07;107907;1254;71772;-66
2024/02/24 08:01:22;;;;;;;;;;;;;;;9.70;89.99;100741.88;108024;1254;71851;-66
2024/02/24 08:03:50;;;;;;;;;;;;;;;9.78;89.06;100734.02;107994;1254;61964;-67
2024/02/24 08:06:17;;;;;;;;;;;;;;;9.83;87.92;100735.05;108232;1254;60303;-67
2024/02/24 08:08:45;;;;;;;;;;;;;;;9.87;86.96;100726.61;108009;1254;73904;-66
2024/02/24 08:11:13;;;;;;;;;;;;;;;9.91;86.52;100728.54;107916;1254;73250;-66
2024/02/24 08:13:44;;;;;;;;;;;;;;;9.96;86.17;100722.40;108098;1254;75159;-67
2024/02/24 08:16:12;;;;;;;;;;;;;;;10.02;85.85;100717.63;107913;1254;60341;-66
2024/02/24 08:18:39;;;;;;;;;;;;;;;10.08;85.17;100722.38;108092;1253;60316;-68
2024/02/24 08:21:07;;;;;;;;;;;;;;;10.13;84.72;100722.87;108147;1254;73813;-68
2024/02/24 08:23:35;;;;;;;;;;;;;;;10.16;84.62;100719.81;108036;1254;72724;-67
2024/02/24 08:26:03;;;;;;;;;;;;;;;10.21;84.44;100715.27;108109;1253;74150;-67
2024/02/24 08:28:31;;;;;;;;;;;;;;;10.26;83.86;100719.13;108180;1253;60286;-66
2024/02/24 08:30:59;;;;;;;;;;;;;;;10.31;83.71;100718.09;107996;1254;60355;-65
2024/02/24 08:33:27;;;;;;;;;;;;;;;10.39;83.36;100719.17;108232;1254;73863;-67
2024/02/24 08:35:55;;;;;;;;;;;;;;;10.45;83.11;100718.39;108136;1254;74052;-67
2024/02/24 08:38:23;;;;;;;;;;;;;;;10.50;82.14;100718.59;107973;1254;72528;-66
2024/02/24 08:40:51;;;;;;;;;;;;;;;10.53;81.88;100719.27;108064;1254;60271;-67
2024/02/24 08:43:18;;;;;;;;;;;;;;;10.55;81.58;100723.51;108086;1254;60856;-65
2024/02/24 08:45:46;;;;;;;;;;;;;;;10.56;81.29;100723.25;108098;1254;72648;-65
2024/02/24 08:48:14;;;;;;;;;;;;;;;10.55;81.23;100726.06;107954;1254;71623;-66
2024/02/24 08:50:41;;;;;;;;;;;;;;;10.54;81.16;100725.52;107997;1254;71823;-66
2024/02/24 08:53:09;;;;;;;;;;;;;;;10.53;81.50;100728.15;108091;1254;60409;-66
2024/02/24 08:55:37;;;;;;;;;;;;;;;10.52;81.42;100732.50;108317;1254;60318;-66
2024/02/24 08:58:05;;;;;;;;;;;;;;;10.48;81.66;100731.71;107983;1254;72619;-66
2024/02/24 09:00:32;;;;;;;;;;;;;;;10.44;81.74;100738.61;108061;1254;71434;-67
2024/02/24 09:03:00;;;;;;;;;;;;;;;10.40;82.19;100738.67;108111;1254;71415;-66
2024/02/24 09:05:28;;;;;;;;;;;;;;;10.38;82.76;100743.20;107978;1256;60535;-66
2024/02/24 09:07:56;;;;;;;;;;;;;;;10.35;83.27;100742.25;107958;1254;60492;-66
2024/02/24 09:10:23;;;;;;;;;;;;;;;10.35;83.75;100738.84;107901;1254;73921;-67
2024/02/24 09:12:51;;;;;;;;;;;;;;;10.37;84.19;100740.14;107921;1254;71942;-69
2024/02/24 09:15:19;;;;;;;;;;;;;;;10.37;84.55;100742.88;107908;1253;71100;-66
2024/02/24 09:17:46;;;;;;;;;;;;;;;10.32;85.06;100745.12;108139;1254;60322;-64
2024/02/24 09:20:15;;;;;;;;;;;;;;;10.31;85.57;100745.95;108175;1258;60322;-67
2024/02/24 09:22:44;;;;;;;;;;;;;;;10.33;85.39;100741.27;108165;1253;75993;-66
2024/02/24 09:25:20;;;;;;;;;;;;;;;10.31;85.66;100748.09;107946;1254;71434;-67
2024/02/24 09:27:49;;;;;;;;;;;;;;;10.31;86.13;100747.40;107909;1256;72073;-66
2024/02/24 09:30:17;;;;;;;;;;;;;;;10.31;86.53;100746.65;107899;1254;60409;-65
2024/02/24 09:32:46;;;;;;;;;;;;;;;10.31;86.70;100746.91;108170;1254;60354;-65
2024/02/24 09:35:17;;;;;;;;;;;;;;;10.37;86.49;100750.61;108180;1259;73839;-66
2024/02/24 09:37:47;;;;;;;;;;;;;;;10.42;86.24;100748.05;108019;1254;71353;-65
2024/02/24 09:40:16;;;;;;;;;;;;;;;10.45;86.14;100749.05;108112;1254;74510;-66
2024/02/24 09:42:50;;;;;;;;;;;;;;;10.46;86.00;100747.39;107917;1254;62942;-65
2024/02/24 09:45:19;;;;;;;;;;;;;;;10.47;86.03;100751.21;107981;1254;60335;-66
2024/02/24 09:48:00;;;;;;;;;;;;;;;10.49;86.15;100755.55;107975;1260;76000;-66
2024/02/24 09:50:43;;;;;;;;;;;;;;;10.52;86.22;100751.35;108094;1254;71144;-67
2024/02/24 09:53:37;;;;;;;;;;;;;;;10.56;86.14;100753.16;108067;1254;72545;-66
2024/02/24 09:56:09;;;;;;;;;;;;;;;10.59;86.07;100751.05;108114;1254;59922;-66
2024/02/24 09:58:37;;;;;;;;;;;;;;;10.62;85.86;100749.20;108110;1254;60337;-66
2024/02/24 10:01:09;;;;;;;;;;;;;;;10.62;85.52;100751.39;107925;1254;72591;-66
2024/02/24 10:03:40;;;;;;;;;;;;;;;10.64;85.94;100748.38;107957;1254;75162;-68
2024/02/24 10:06:17;;;;;;;;;;;;;;;10.68;85.87;100751.23;108071;1254;73236;-66
2024/02/24 10:08:50;;;;;;;;;;;;;;;10.71;85.91;100750.37;108066;1254;61238;-65
2024/02/24 10:11:18;;;;;;;;;;;;;;;10.76;86.09;100747.74;108287;1254;62020;-65
2024/02/24 10:13:47;;;;;;;;;;;;;;;10.82;86.11;100740.58;108103;1254;73045;-66
2024/02/24 10:19:51;;;;;;;;;;;;;;;10.99;86.31;100732.40;107813;1257;71861;-66
2024/02/24 10:22:19;;;;;;;;;;;;;;;11.11;86.28;100739.00;107850;1259;60331;-65
2024/02/24 10:24:47;;;;;;;;;;;;;;;11.19;85.99;100745.42;107808;1257;60287;-66
2024/02/24 10:27:15;;;;;;;;;;;;;;;11.24;85.06;100745.36;107771;1259;72565;-66
2024/02/24 10:29:45;;;;;;;;;;;;;;;11.25;84.42;100747.89;107824;1257;74123;-67
2024/02/24 10:32:13;;;;;;;;;;;;;;;11.24;84.15;100746.27;107701;1258;72504;-65
2024/02/24 10:34:41;;;;;;;;;;;;;;;11.24;83.93;100753.22;107780;1257;60486;-66
2024/02/24 10:37:08;;;;;;;;;;;;;;;11.25;84.05;100753.98;107823;1257;60345;-67
2024/02/24 10:39:36;;;;;;;;;;;;;;;11.27;84.13;100743.93;107845;1257;73830;-65
2024/02/24 10:42:06;;;;;;;;;;;;;;;11.30;84.17;100746.73;107818;1257;71415;-65
2024/02/24 10:44:34;;;;;;;;;;;;;;;11.34;84.10;100743.08;107850;1262;73668;-71
2024/02/24 10:47:01;;;;;;;;;;;;;;;11.37;83.78;100744.16;107727;1257;61701;-69
2024/02/24 10:49:30;;;;;;;;;;;;;;;11.43;83.60;100739.29;107801;1257;60524;-66
2024/02/24 10:51:57;;;;;;;;;;;;;;;11.48;83.37;100738.41;107965;1255;76113;-66
2024/02/24 10:54:26;;;;;;;;;;;;;;;11.53;82.86;100735.92;107884;1254;73129;-64
2024/02/24 10:56:56;;;;;;;;;;;;;;;11.58;82.67;100733.43;108128;1254;73007;-66
2024/02/24 10:59:28;;;;;;;;;;;;;;;11.63;82.36;100728.27;108155;1254;62492;-64
2024/02/24 11:02:00;;;;;;;;;;;;;;;11.68;82.01;100721.13;108073;1254;60866;-66
2024/02/24 11:04:28;;;;;;;;;;;;;;;11.70;81.24;100719.90;107960;1254;74630;-69
2024/02/24 11:06:57;;;;;;;;;;;;;;;11.71;81.08;100719.27;108025;1259;71164;-66
2024/02/24 11:09:26;;;;;;;;;;;;;;;11.73;80.84;100723.30;108123;1254;74964;-66
2024/02/24 11:12:03;;;;;;;;;;;;;;;11.76;80.82;100723.20;108078;1254;63878;-67
2024/02/24 11:14:31;;;;;;;;;;;;;;;11.79;80.59;100728.36;108113;1254;62254;-67
2024/02/24 11:16:59;;;;;;;;;;;;;;;11.82;80.41;100729.00;108039;1254;72394;-66
2024/02/24 11:19:45;;;;;;;;;;;;;;;11.85;80.11;100725.52;107980;1254;75052;-67
2024/02/24 11:22:29;;;;;;;;;;;;;;;11.89;80.01;100719.55;108058;1254;74879;-67
2024/02/24 11:25:01;;;;;;;;;;;;;;;11.90;79.57;100720.52;108106;1254;60190;-66
2024/02/24 11:27:34;;;;;;;;;;;;;;;11.92;79.43;100715.76;107979;1260;61102;-65
2024/02/24 11:30:22;;;;;;;;;;;;;;;11.95;79.61;100711.31;108096;1254;76057;-67
2024/02/24 11:32:51;;;;;;;;;;;;;;;12.02;79.58;100700.10;107856;1254;75109;-65
2024/02/24 11:35:19;;;;;;;;;;;;;;;12.08;79.39;100704.52;108060;1254;73551;-65
2024/02/24 11:37:47;;;;;;;;;;;;;;;12.15;79.23;100708.48;108064;1254;60431;-68
2024/02/24 11:40:14;;;;;;;;;;;;;;;12.18;78.33;100705.30;107934;1253;60415;-65
2024/02/24 11:42:42;;;;;;;;;;;;;;;12.21;77.96;100697.80;108069;1253;76052;-67
2024/02/24 11:45:10;;;;;;;;;;;;;;;12.23;77.71;100693.69;108088;1254;72885;-66
2024/02/24 11:47:39;;;;;;;;;;;;;;;12.24;77.41;100702.27;108136;1253;74926;-65
2024/02/24 11:50:08;;;;;;;;;;;;;;;12.25;77.05;100701.58;108046;1254;62086;-65
2024/02/24 11:52:35;;;;;;;;;;;;;;;12.24;76.77;100702.05;107983;1254;61025;-65
2024/02/24 11:55:04;;;;;;;;;;;;;;;12.23;76.63;100697.70;108064;1258;74067;-66
2024/02/24 11:57:32;;;;;;;;;;;;;;;12.21;76.66;100693.20;108142;1253;71668;-65
2024/02/24 11:59:59;;;;;;;;;;;;;;;12.21;76.58;100691.92;108111;1254;72121;-67
2024/02/24 12:02:28;;;;;;;;;;;;;;;12.24;76.63;100689.94;108053;1260;62325;-66
2024/02/24 12:05:12;;;;;;;;;;;;;;;12.30;76.69;100690.90;108092;1254;60498;-66
2024/02/24 12:07:40;;;;;;;;;;;;;;;12.39;76.42;100693.30;108180;1254;74184;-64
2024/02/24 12:10:08;;;;;;;;;;;;;;;12.43;75.88;100695.02;108254;1254;74813;-66
2024/02/24 12:12:36;;;;;;;;;;;;;;;12.47;75.27;100694.52;107930;1255;71064;-65
2024/02/24 12:15:04;;;;;;;;;;;;;;;12.54;74.76;100693.36;108028;1256;59774;-68
2024/02/24 12:17:35;;;;;;;;;;;;;;;12.58;74.05;100692.72;108122;1254;60344;-67
2024/02/24 12:20:03;;;;;;;;;;;;;;;12.59;73.52;100690.80;108111;1254;74298;-67
2024/02/24 12:22:32;;;;;;;;;;;;;;;12.57;73.26;100691.91;108051;1254;75046;-66
2024/02/24 12:25:13;;;;;;;;;;;;;;;12.57;72.81;100693.20;108057;1254;74884;-66
2024/02/24 12:27:41;;;;;;;;;;;;;;;12.57;72.74;100691.21;108164;1254;60162;-66
2024/02/24 12:30:10;;;;;;;;;;;;;;;12.62;72.33;100691.17;107969;1254;60306;-65
2024/02/24 12:32:37;;;;;;;;;;;;;;;12.63;72.13;100692.93;108122;1254;74073;-66
2024/02/24 12:35:06;;;;;;;;;;;;;;;12.64;72.07;100694.66;107867;1254;74080;-66
2024/02/24 12:37:33;;;;;;;;;;;;;;;12.65;71.86;100696.52;107950;1259;74899;-66
2024/02/24 12:40:04;;;;;;;;;;;;;;;12.65;71.73;100698.36;108040;1254;60949;-66